Time;durP1;ratioP1;P1;durP2;ratioP2;P2;SDS_P1;SDS_P2;PMS_P1;PMS_P2;Temp;Humidity;BMP_temperature;BMP_pressure;BME280_temperature;BME280_humidity;BME280_pressure;Samples;Min_cycle;Max_cycle;Signal;HPM_P1;HPM_P2
2022/08/01 00:01:17;;;;;;;256.63;233.13;;;18.90;99.90;;;;;;5013909;28;20050;-76
2022/08/01 00:03:44;;;;;;;268.83;243.75;;;19.00;99.90;;;;;;5013863;28;20056;-76
2022/08/01 00:06:11;;;;;;;266.15;241.38;;;19.00;99.90;;;;;;5015196;28;20056;-77
2022/08/01 00:08:38;;;;;;;267.08;242.38;;;19.00;99.90;;;;;;5014552;28;20789;-77
2022/08/01 00:11:06;;;;;;;265.77;241.13;;;19.00;99.90;;;;;;5015388;28;20056;-77
2022/08/01 00:13:33;;;;;;;260.75;236.95;;;18.90;99.90;;;;;;5014406;28;20077;-77
2022/08/01 00:16:00;;;;;;;259.52;236.00;;;18.90;99.90;;;;;;4997456;28;20824;-77
2022/08/01 00:18:27;;;;;;;260.02;236.63;;;18.90;99.90;;;;;;5014660;28;20080;-77
2022/08/01 00:20:53;;;;;;;263.00;239.27;;;18.90;99.90;;;;;;5013361;28;20133;-77
2022/08/01 00:23:20;;;;;;;259.00;235.55;;;18.90;99.90;;;;;;5013498;28;20054;-77
2022/08/01 00:25:47;;;;;;;261.40;237.63;;;18.90;99.90;;;;;;5013836;28;20499;-76
2022/08/01 00:28:16;;;;;;;259.85;236.40;;;18.90;99.90;;;;;;5012577;28;20514;-77
2022/08/01 00:30:43;;;;;;;259.50;235.82;;;18.90;99.90;;;;;;5013572;28;20046;-77
2022/08/01 00:33:10;;;;;;;260.77;237.25;;;19.00;99.90;;;;;;5014835;28;20074;-77
2022/08/01 00:35:36;;;;;;;257.67;234.32;;;18.90;99.90;;;;;;5013444;28;20156;-77
2022/08/01 00:38:04;;;;;;;255.93;232.32;;;18.90;99.90;;;;;;5013546;28;20080;-77
2022/08/01 00:40:31;;;;;;;259.92;236.52;;;18.90;99.90;;;;;;5013516;28;20501;-77
2022/08/01 00:42:58;;;;;;;253.80;230.93;;;18.90;99.90;;;;;;5013444;28;20054;-77
2022/08/01 00:45:26;;;;;;;254.90;231.90;;;18.90;99.90;;;;;;5013282;28;20100;-77
2022/08/01 00:47:53;;;;;;;250.88;228.02;;;18.90;99.90;;;;;;5013232;28;20061;-77
2022/08/01 00:50:20;;;;;;;254.02;230.98;;;18.90;99.90;;;;;;5014645;28;20057;-77
2022/08/01 00:52:47;;;;;;;255.32;232.10;;;18.90;99.90;;;;;;5012804;28;20557;-77
2022/08/01 00:55:14;;;;;;;251.93;229.25;;;18.90;99.90;;;;;;5013339;28;20054;-77
2022/08/01 00:57:42;;;;;;;248.93;226.45;;;18.90;99.90;;;;;;5012382;28;20054;-77
2022/08/01 01:00:10;;;;;;;246.98;224.77;;;18.90;99.90;;;;;;4996644;28;20059;-77
2022/08/01 01:02:38;;;;;;;248.95;226.57;;;18.90;99.90;;;;;;5012489;28;20512;-77
2022/08/01 01:05:06;;;;;;;241.88;220.18;;;18.90;99.90;;;;;;5013048;28;20125;-77
2022/08/01 01:07:42;;;;;;;244.43;222.32;;;18.90;99.90;;;;;;5014347;28;20085;-77
2022/08/01 01:10:16;;;;;;;246.73;224.57;;;18.90;99.90;;;;;;5012873;28;20056;-77
2022/08/01 01:12:48;;;;;;;246.45;224.27;;;18.90;99.90;;;;;;5012703;28;20234;-77
2022/08/01 01:15:19;;;;;;;247.45;225.15;;;18.90;99.90;;;;;;5012990;28;20092;-77
2022/08/01 01:17:52;;;;;;;244.65;222.65;;;18.90;99.90;;;;;;4996182;28;20074;-77
2022/08/01 01:20:22;;;;;;;249.25;226.85;;;18.90;99.90;;;;;;5014587;28;20141;-77
2022/08/01 01:23:11;;;;;;;244.27;222.27;;;18.80;99.90;;;;;;5012511;28;20153;-77
2022/08/01 01:25:51;;;;;;;256.38;233.00;;;18.80;99.90;;;;;;5012795;28;20497;-77
2022/08/01 01:28:27;;;;;;;308.63;280.40;;;18.80;99.90;;;;;;5011933;28;20133;-77
2022/08/01 01:30:58;;;;;;;330.95;301.08;;;18.80;99.90;;;;;;5014269;28;20064;-77
2022/08/01 01:33:28;;;;;;;322.10;292.48;;;18.80;99.90;;;;;;5012672;28;20542;-76
2022/08/01 01:36:01;;;;;;;297.23;270.23;;;18.80;99.90;;;;;;5012453;28;20054;-76
2022/08/01 01:38:33;;;;;;;337.60;306.70;;;18.90;99.90;;;;;;5010386;28;20058;-77
2022/08/01 01:41:00;;;;;;;328.60;298.15;;;18.90;99.90;;;;;;5012270;28;20054;-77
2022/08/01 01:43:30;;;;;;;350.20;318.10;;;18.90;99.90;;;;;;5012548;28;20428;-78
2022/08/01 01:45:58;;;;;;;334.10;303.35;;;18.90;99.90;;;;;;5012216;28;20046;-77
2022/08/01 01:48:27;;;;;;;310.15;281.45;;;18.90;99.90;;;;;;5013337;28;20141;-77
2022/08/01 01:50:54;;;;;;;326.67;296.98;;;18.90;99.90;;;;;;5013795;28;20057;-77
2022/08/01 01:53:23;;;;;;;350.50;318.52;;;18.90;99.90;;;;;;5013391;28;20170;-77
2022/08/01 01:55:54;;;;;;;350.70;318.45;;;18.90;99.90;;;;;;5013186;28;20058;-77
2022/08/01 01:58:22;;;;;;;357.90;325.02;;;18.90;99.90;;;;;;5012945;28;20058;-77
2022/08/01 02:00:52;;;;;;;355.33;322.88;;;18.90;99.90;;;;;;4995579;28;20133;-77
2022/08/01 02:03:22;;;;;;;345.60;314.05;;;18.80;99.90;;;;;;5012232;28;20504;-77
2022/08/01 02:05:50;;;;;;;329.38;299.17;;;18.80;99.90;;;;;;5012204;28;20500;-77
2022/08/01 02:08:18;;;;;;;364.67;331.38;;;18.90;99.90;;;;;;5011879;28;20547;-77
2022/08/01 02:11:17;;;;;;;335.50;304.95;;;18.90;99.90;;;;;;5012333;28;20988;-77
2022/08/01 02:13:37;;;;;;;357.02;324.10;;;18.90;99.90;;;;;;5013522;28;20051;-77
2022/08/01 02:16:05;;;;;;;277.50;252.20;;;18.80;99.90;;;;;;4995989;28;20058;-77
2022/08/01 02:18:33;;;;;;;388.42;352.92;;;18.80;99.90;;;;;;5013096;28;20113;-77
2022/08/01 02:21:04;;;;;;;449.48;409.10;;;18.80;99.90;;;;;;5012228;28;20050;-77
2022/08/01 02:23:34;;;;;;;427.45;388.48;;;18.80;99.90;;;;;;5011024;28;20051;-77
2022/08/01 02:26:08;;;;;;;400.98;363.95;;;18.90;99.90;;;;;;5011930;28;20046;-77
2022/08/01 02:28:38;;;;;;;374.90;340.67;;;18.80;99.90;;;;;;5011619;28;20061;-77
2022/08/01 02:31:10;;;;;;;368.05;334.10;;;18.80;99.90;;;;;;5013071;28;20149;-78
2022/08/01 02:33:40;;;;;;;385.48;349.92;;;18.80;99.90;;;;;;5011717;28;20046;-77
2022/08/01 02:36:08;;;;;;;376.95;342.13;;;18.80;99.90;;;;;;5015636;28;20050;-77
2022/08/01 02:38:41;;;;;;;375.08;340.45;;;18.90;99.90;;;;;;5014992;28;20134;-77
2022/08/01 02:41:10;;;;;;;371.65;337.05;;;18.80;99.90;;;;;;5015233;28;20046;-77
2022/08/01 02:43:39;;;;;;;359.20;325.85;;;18.80;99.90;;;;;;5015020;28;20062;-77
2022/08/01 02:46:09;;;;;;;366.67;333.17;;;18.80;99.90;;;;;;5015398;28;20882;-77
2022/08/01 02:48:39;;;;;;;388.67;352.52;;;18.80;99.90;;;;;;5015256;28;20130;-77
2022/08/01 02:51:09;;;;;;;369.52;335.83;;;18.90;99.90;;;;;;5016426;28;20117;-77
2022/08/01 02:53:39;;;;;;;376.05;341.75;;;18.80;99.90;;;;;;5015353;28;20105;-77
2022/08/01 02:56:06;;;;;;;373.08;338.70;;;18.90;99.90;;;;;;5014973;28;20054;-77
2022/08/01 02:58:36;;;;;;;366.92;332.98;;;18.90;99.90;;;;;;5014430;28;20053;-77
2022/08/01 03:01:06;;;;;;;357.73;325.00;;;18.90;99.90;;;;;;5016316;28;20097;-78
2022/08/01 03:03:34;;;;;;;384.48;348.98;;;18.90;99.90;;;;;;5015123;28;20056;-77
2022/08/01 03:06:03;;;;;;;374.83;340.42;;;18.90;99.90;;;;;;5016031;28;20047;-77
2022/08/01 03:08:32;;;;;;;360.30;327.13;;;18.90;99.90;;;;;;5014633;28;20088;-77
2022/08/01 03:11:03;;;;;;;355.50;322.35;;;18.90;99.90;;;;;;5016172;28;20054;-77
2022/08/01 03:13:56;;;;;;;359.58;326.50;;;18.80;99.90;;;;;;5016263;28;20047;-77
2022/08/01 03:16:26;;;;;;;349.15;316.85;;;18.80;99.90;;;;;;5015064;28;20054;-77
2022/08/01 03:18:56;;;;;;;308.30;280.00;;;18.80;99.90;;;;;;5014548;28;20133;-76
2022/08/01 03:21:26;;;;;;;364.45;329.92;;;18.90;99.90;;;;;;5016343;28;20522;-77
2022/08/01 03:23:56;;;;;;;365.13;331.17;;;18.90;99.90;;;;;;5016092;28;20142;-77
2022/08/01 03:26:28;;;;;;;358.73;325.58;;;18.80;99.90;;;;;;5016148;28;20054;-77
2022/08/01 03:28:59;;;;;;;343.70;311.70;;;18.90;99.90;;;;;;5015885;28;20058;-77
2022/08/01 03:31:27;;;;;;;337.98;306.98;;;18.90;99.90;;;;;;5014545;28;20101;-77
2022/08/01 03:33:54;;;;;;;327.92;296.98;;;18.90;99.90;;;;;;4997980;28;20042;-77
2022/08/01 03:36:26;;;;;;;328.23;297.60;;;18.90;99.90;;;;;;5014128;28;20046;-77
2022/08/01 03:38:56;;;;;;;330.90;300.35;;;18.80;99.90;;;;;;5015728;28;20055;-77
2022/08/01 03:41:27;;;;;;;326.27;296.20;;;18.80;99.90;;;;;;5014364;28;20939;-77
2022/08/01 03:43:59;;;;;;;332.13;301.35;;;18.80;99.90;;;;;;5014393;28;20417;-77
2022/08/01 03:46:33;;;;;;;321.42;291.67;;;18.80;99.90;;;;;;5013453;28;20055;-77
2022/08/01 03:49:08;;;;;;;319.23;290.08;;;18.80;99.90;;;;;;5014136;28;20054;-77
2022/08/01 03:51:37;;;;;;;316.13;286.80;;;18.80;99.90;;;;;;5014165;28;20575;-77
2022/08/01 03:54:06;;;;;;;312.10;283.08;;;18.80;99.90;;;;;;4997501;28;20051;-77
2022/08/01 03:56:34;;;;;;;311.95;282.98;;;18.80;99.90;;;;;;4997415;28;20050;-77
2022/08/01 03:59:02;;;;;;;309.77;281.15;;;18.80;99.90;;;;;;5013776;28;20077;-77
2022/08/01 04:01:31;;;;;;;309.27;280.20;;;18.70;99.90;;;;;;5015006;28;20058;-78
2022/08/01 04:04:00;;;;;;;301.88;273.80;;;18.70;99.90;;;;;;5013822;28;20051;-77
2022/08/01 04:06:27;;;;;;;271.45;246.20;;;18.70;99.90;;;;;;5013749;28;20054;-77
2022/08/01 04:08:58;;;;;;;284.67;257.98;;;18.70;99.90;;;;;;5013885;28;20512;-77
2022/08/01 04:11:27;;;;;;;290.02;262.88;;;18.70;99.90;;;;;;5014863;28;20137;-77
2022/08/01 04:13:54;;;;;;;334.23;303.05;;;18.70;99.90;;;;;;5013590;28;20130;-77
2022/08/01 04:16:22;;;;;;;320.98;291.23;;;18.70;99.90;;;;;;5013683;28;20138;-77
2022/08/01 04:18:49;;;;;;;340.50;309.13;;;18.60;99.90;;;;;;5014028;28;21014;-77
2022/08/01 04:21:19;;;;;;;323.17;293.13;;;18.70;99.90;;;;;;5013584;28;20061;-77
2022/08/01 04:23:47;;;;;;;344.73;313.23;;;18.70;99.90;;;;;;4997081;28;20050;-77
2022/08/01 04:26:17;;;;;;;331.80;301.02;;;18.60;99.90;;;;;;5014212;28;20056;-77
2022/08/01 04:28:46;;;;;;;300.63;271.65;;;18.60;99.90;;;;;;5012836;28;20050;-77
2022/08/01 04:31:17;;;;;;;307.67;278.25;;;18.50;99.90;;;;;;5014873;28;20081;-77
2022/08/01 04:33:48;;;;;;;299.20;271.05;;;18.50;99.90;;;;;;5013823;28;20046;-77
2022/08/01 04:36:19;;;;;;;301.20;272.90;;;18.50;99.90;;;;;;5013681;28;20046;-77
2022/08/01 04:38:50;;;;;;;284.67;257.48;;;18.50;99.90;;;;;;5013655;28;20064;-77
2022/08/01 04:41:19;;;;;;;274.92;248.13;;;18.50;99.90;;;;;;5015034;28;20141;-77
2022/08/01 04:43:47;;;;;;;307.80;279.17;;;18.60;99.90;;;;;;5013642;28;20627;-77
2022/08/01 04:46:15;;;;;;;301.65;273.00;;;18.60;99.90;;;;;;5013166;28;20109;-77
2022/08/01 04:48:42;;;;;;;305.25;276.35;;;18.50;99.90;;;;;;5013222;28;20137;-77
2022/08/01 04:51:14;;;;;;;289.27;261.85;;;18.60;99.90;;;;;;5013404;28;20500;-77
2022/08/01 04:53:42;;;;;;;302.75;274.33;;;18.60;99.90;;;;;;5013202;28;20086;-77
2022/08/01 04:56:09;;;;;;;293.00;265.55;;;18.50;99.90;;;;;;5013224;28;20145;-77
2022/08/01 04:58:37;;;;;;;279.58;252.48;;;18.60;99.90;;;;;;4996503;28;20057;-78
2022/08/01 05:01:04;;;;;;;298.30;269.70;;;18.60;99.90;;;;;;5013469;28;20065;-77
2022/08/01 05:03:31;;;;;;;308.75;279.05;;;18.60;99.90;;;;;;5013313;28;20054;-77
2022/08/01 05:05:58;;;;;;;293.17;264.90;;;18.60;99.90;;;;;;5012859;28;20050;-77
2022/08/01 05:08:25;;;;;;;299.25;270.30;;;18.60;99.90;;;;;;5014370;28;20141;-77
2022/08/01 05:10:52;;;;;;;305.00;276.42;;;18.60;99.90;;;;;;5013194;28;20054;-77
2022/08/01 05:13:19;;;;;;;306.75;277.90;;;18.60;99.90;;;;;;5013245;28;20574;-77
2022/08/01 05:15:47;;;;;;;304.73;276.23;;;18.60;99.90;;;;;;5014492;28;20084;-77
2022/08/01 05:18:14;;;;;;;318.10;288.08;;;18.60;99.90;;;;;;5012766;28;20054;-77
2022/08/01 05:20:42;;;;;;;307.33;278.20;;;18.60;99.90;;;;;;5013013;28;20971;-77
2022/08/01 05:23:09;;;;;;;295.67;267.73;;;18.60;99.90;;;;;;5012790;28;20046;-77
2022/08/01 05:25:35;;;;;;;301.80;273.00;;;18.60;99.80;;;;;;5014069;28;20058;-77
2022/08/01 05:28:02;;;;;;;289.38;262.15;;;18.50;99.80;;;;;;5012715;28;20061;-77
2022/08/01 05:30:29;;;;;;;310.83;281.52;;;18.50;99.80;;;;;;5012706;28;20085;-77
2022/08/01 05:32:58;;;;;;;298.08;269.88;;;18.50;99.80;;;;;;5013604;28;20054;-77
2022/08/01 05:35:26;;;;;;;296.58;268.73;;;18.50;99.80;;;;;;5013705;28;20109;-77
2022/08/01 05:37:53;;;;;;;299.38;271.27;;;18.50;99.80;;;;;;5012491;28;20140;-79
2022/08/01 05:40:20;;;;;;;270.85;245.05;;;18.50;99.80;;;;;;5013866;28;20074;-77
2022/08/01 05:42:47;;;;;;;291.10;263.65;;;18.50;99.80;;;;;;4996048;28;20058;-77
2022/08/01 05:45:14;;;;;;;298.15;269.58;;;18.50;99.80;;;;;;5012368;28;20058;-77
2022/08/01 05:47:40;;;;;;;298.05;269.85;;;18.50;99.80;;;;;;5013898;28;20054;-78
2022/08/01 05:50:09;;;;;;;313.42;284.10;;;18.50;99.80;;;;;;5012721;28;20108;-77
2022/08/01 05:52:36;;;;;;;344.05;311.73;;;18.50;99.80;;;;;;5012440;28;20043;-77
2022/08/01 05:55:04;;;;;;;405.77;368.80;;;18.40;99.80;;;;;;5012615;28;20070;-77
2022/08/01 05:57:31;;;;;;;389.27;353.40;;;18.50;99.90;;;;;;5012515;28;20050;-77
2022/08/01 05:59:58;;;;;;;371.92;337.73;;;18.50;99.90;;;;;;5014089;28;20050;-77
2022/08/01 06:02:25;;;;;;;362.13;328.65;;;18.50;99.90;;;;;;5012321;28;20053;-77
2022/08/01 06:04:52;;;;;;;388.77;352.92;;;18.50;99.90;;;;;;5011245;28;20137;-77
2022/08/01 06:07:20;;;;;;;433.02;394.35;;;18.50;99.90;;;;;;5011316;28;20038;-77
2022/08/01 06:09:47;;;;;;;446.35;406.33;;;18.50;99.90;;;;;;5011725;28;20050;-77
2022/08/01 06:12:14;;;;;;;385.33;349.65;;;18.40;99.90;;;;;;5010071;28;20049;-77
2022/08/01 06:14:42;;;;;;;394.88;358.33;;;18.40;99.90;;;;;;5010002;28;20065;-78
2022/08/01 06:17:09;;;;;;;373.55;338.90;;;18.40;99.90;;;;;;5010158;28;20622;-77
2022/08/01 06:19:36;;;;;;;374.38;339.95;;;18.40;99.90;;;;;;5010157;28;20050;-77
2022/08/01 06:22:03;;;;;;;362.20;328.38;;;18.40;99.90;;;;;;5009648;28;20047;-77
2022/08/01 06:24:31;;;;;;;341.30;309.70;;;18.40;99.80;;;;;;5012190;28;20065;-77
2022/08/01 06:26:58;;;;;;;379.05;344.02;;;18.40;99.80;;;;;;5012020;28;20086;-78
2022/08/01 06:29:25;;;;;;;431.35;392.08;;;18.40;99.80;;;;;;5011973;28;20086;-77
2022/08/01 06:31:52;;;;;;;403.65;365.92;;;18.40;99.80;;;;;;5011722;28;20058;-77
2022/08/01 06:34:19;;;;;;;425.40;386.42;;;18.40;99.70;;;;;;5010743;28;20054;-77
2022/08/01 06:36:46;;;;;;;399.63;362.33;;;18.40;99.70;;;;;;5011153;28;20078;-77
2022/08/01 06:39:12;;;;;;;400.73;363.55;;;18.40;99.60;;;;;;5123026;22;20506;-78
2022/08/01 06:41:42;;;;;;;394.48;357.65;;;18.40;99.60;;;;;;5080859;28;20146;-77
2022/08/01 06:44:09;;;;;;;390.40;353.38;;;18.40;99.60;;;;;;5081774;28;20102;-77
2022/08/01 06:46:36;;;;;;;374.25;338.05;;;18.40;99.60;;;;;;5069669;28;20053;-77
2022/08/01 06:49:03;;;;;;;362.98;328.45;;;18.30;99.50;;;;;;5052760;28;20515;-77
2022/08/01 06:51:29;;;;;;;354.17;320.85;;;18.30;99.60;;;;;;5071340;28;20045;-77
2022/08/01 06:53:56;;;;;;;356.50;323.20;;;18.40;99.50;;;;;;5076577;28;20049;-79
2022/08/01 06:56:23;;;;;;;337.05;304.88;;;18.40;99.40;;;;;;5079817;28;20083;-77
2022/08/01 06:58:52;;;;;;;335.55;302.27;;;18.40;99.40;;;;;;5070036;28;20055;-77
2022/08/01 07:01:18;;;;;;;289.83;261.35;;;18.30;99.20;;;;;;5071423;28;20079;-77
2022/08/01 07:03:45;;;;;;;281.73;253.63;;;18.30;99.20;;;;;;5078946;28;20053;-77
2022/08/01 07:06:12;;;;;;;282.83;254.50;;;18.30;99.10;;;;;;5072837;28;20045;-77
2022/08/01 07:08:39;;;;;;;280.13;252.38;;;18.30;99.00;;;;;;5071179;28;20132;-77
2022/08/01 07:11:06;;;;;;;282.80;254.68;;;18.30;99.00;;;;;;5071245;28;20100;-77
2022/08/01 07:13:33;;;;;;;266.48;239.20;;;18.30;99.00;;;;;;5071344;28;20045;-78
2022/08/01 07:16:02;;;;;;;263.13;235.70;;;18.30;99.00;;;;;;5071435;28;20049;-77
2022/08/01 07:18:29;;;;;;;292.40;263.23;;;18.30;98.90;;;;;;5072209;28;20056;-77
2022/08/01 07:20:55;;;;;;;269.30;242.38;;;18.30;98.90;;;;;;5072965;28;20045;-78
2022/08/01 07:23:23;;;;;;;288.40;259.92;;;18.30;98.70;;;;;;5075994;28;20056;-77
2022/08/01 07:25:52;;;;;;;248.43;223.02;;;18.20;98.70;;;;;;5075851;28;20072;-77
2022/08/01 07:28:19;;;;;;;294.23;265.17;;;18.20;98.70;;;;;;5074263;28;20438;-77
2022/08/01 07:30:46;;;;;;;253.75;228.55;;;18.20;98.80;;;;;;5074391;28;20060;-78
2022/08/01 07:33:14;;;;;;;284.83;256.25;;;18.20;98.80;;;;;;5074790;28;20052;-77
2022/08/01 07:35:41;;;;;;;278.15;250.45;;;18.30;98.80;;;;;;5074229;28;20053;-77
2022/08/01 07:38:08;;;;;;;281.20;252.68;;;18.30;98.80;;;;;;5073523;28;20053;-77
2022/08/01 07:40:35;;;;;;;279.10;251.18;;;18.30;98.80;;;;;;5074433;28;20041;-77
2022/08/01 07:43:02;;;;;;;256.40;230.02;;;18.30;98.80;;;;;;5074316;28;20052;-78
2022/08/01 07:45:30;;;;;;;255.82;229.93;;;18.30;98.80;;;;;;5074437;28;20056;-77
2022/08/01 07:47:57;;;;;;;272.65;245.40;;;18.30;98.70;;;;;;5080642;28;20057;-77
2022/08/01 07:50:25;;;;;;;250.35;224.98;;;18.30;98.50;;;;;;5082913;28;20041;-77
2022/08/01 07:52:52;;;;;;;275.02;247.15;;;18.30;98.60;;;;;;5084732;28;20491;-77
2022/08/01 07:55:19;;;;;;;249.02;223.52;;;18.30;98.70;;;;;;5082477;28;20118;-78
2022/08/01 07:57:46;;;;;;;236.18;212.63;;;18.30;98.70;;;;;;5081513;28;20045;-77
2022/08/01 08:00:14;;;;;;;255.40;230.02;;;18.30;98.70;;;;;;5080444;28;20053;-78
2022/08/01 08:02:41;;;;;;;250.88;225.75;;;18.30;98.80;;;;;;5091210;28;20052;-77
2022/08/01 08:05:08;;;;;;;244.65;219.85;;;18.30;98.80;;;;;;5092620;28;20052;-77
2022/08/01 08:07:37;;;;;;;242.73;217.70;;;18.30;98.70;;;;;;5092095;28;20049;-78
2022/08/01 08:10:04;;;;;;;256.52;231.15;;;18.30;98.70;;;;;;5094548;28;20140;-77
2022/08/01 08:12:31;;;;;;;243.25;219.02;;;18.40;98.90;;;;;;5093787;28;20052;-77
2022/08/01 08:15:00;;;;;;;276.15;249.20;;;18.40;98.80;;;;;;5095049;28;20052;-78
2022/08/01 08:17:27;;;;;;;259.38;233.40;;;18.40;98.70;;;;;;5073294;28;20522;-79
2022/08/01 08:19:54;;;;;;;263.67;237.50;;;18.40;98.70;;;;;;5073463;28;20057;-79
2022/08/01 08:22:21;;;;;;;266.70;240.07;;;18.50;98.60;;;;;;5072757;28;20053;-79
2022/08/01 08:24:49;;;;;;;238.18;213.80;;;18.50;98.50;;;;;;5084302;28;20080;-77
2022/08/01 08:27:16;;;;;;;245.95;222.07;;;18.50;98.40;;;;;;5078540;28;20059;-77
2022/08/01 08:29:43;;;;;;;249.75;225.13;;;18.50;98.40;;;;;;5084282;28;20041;-78
2022/08/01 08:32:10;;;;;;;250.98;226.07;;;18.60;98.50;;;;;;5073229;28;20149;-78
2022/08/01 08:34:37;;;;;;;251.77;227.45;;;18.60;98.30;;;;;;5076357;28;20140;-77
2022/08/01 08:37:06;;;;;;;254.30;228.43;;;18.60;98.30;;;;;;5085856;28;20084;-77
2022/08/01 08:39:32;;;;;;;243.02;218.80;;;18.60;98.30;;;;;;5079410;28;20418;-77
2022/08/01 08:42:02;;;;;;;235.55;211.35;;;18.70;98.40;;;;;;5089501;28;20056;-78
2022/08/01 08:44:29;;;;;;;249.55;224.65;;;18.70;98.30;;;;;;5082731;28;20105;-74
2022/08/01 08:46:59;;;;;;;249.32;223.80;;;18.70;98.00;;;;;;5082814;28;20080;-78
2022/08/01 08:49:28;;;;;;;251.88;226.75;;;18.70;97.70;;;;;;5075059;28;20049;-78
2022/08/01 08:51:59;;;;;;;241.40;217.88;;;18.70;97.80;;;;;;5078351;28;20047;-76
2022/08/01 08:54:28;;;;;;;248.20;223.02;;;18.70;97.20;;;;;;5090042;28;20080;-80
2022/08/01 08:56:55;;;;;;;255.23;228.50;;;18.70;97.10;;;;;;5087870;28;20049;-80
2022/08/01 08:59:24;;;;;;;252.02;225.88;;;18.60;96.90;;;;;;5067990;28;20588;-78
2022/08/01 09:01:52;;;;;;;258.27;232.32;;;18.60;97.00;;;;;;5088730;28;20120;-77
2022/08/01 09:04:19;;;;;;;249.60;224.13;;;18.60;97.00;;;;;;5090827;28;20088;-77
2022/08/01 09:06:46;;;;;;;283.98;255.82;;;18.60;97.10;;;;;;5080155;28;20134;-77
2022/08/01 09:09:13;;;;;;;260.67;234.82;;;18.60;97.00;;;;;;5076132;28;20089;-77
2022/08/01 09:11:39;;;;;;;262.40;236.20;;;18.60;97.10;;;;;;5073621;28;20057;-78
2022/08/01 09:14:10;;;;;;;241.35;217.30;;;18.60;97.10;;;;;;5075462;28;20053;-77
2022/08/01 09:16:42;;;;;;;263.25;237.05;;;18.70;97.20;;;;;;5071103;28;20490;-78
2022/08/01 09:19:12;;;;;;;232.07;209.48;;;18.70;97.20;;;;;;5083331;28;20124;-77
2022/08/01 09:21:40;;;;;;;231.65;208.75;;;18.70;97.20;;;;;;5076777;28;20494;-78
2022/08/01 09:24:16;;;;;;;234.88;211.40;;;18.70;97.10;;;;;;5093218;28;20533;-77
2022/08/01 09:26:44;;;;;;;243.60;219.55;;;18.80;96.90;;;;;;5087041;28;20516;-77
2022/08/01 09:29:19;;;;;;;214.65;193.35;;;18.80;97.00;;;;;;5080081;28;20128;-77
2022/08/01 09:31:47;;;;;;;225.20;202.35;;;18.90;97.00;;;;;;5072661;28;20057;-80
2022/08/01 09:34:15;;;;;;;253.00;228.30;;;18.90;97.20;;;;;;5073209;28;20052;-76
2022/08/01 09:36:51;;;;;;;233.93;210.50;;;18.90;97.10;;;;;;5084853;28;20048;-77
2022/08/01 09:39:19;;;;;;;233.82;211.00;;;19.00;97.20;;;;;;5074684;28;20052;-77
2022/08/01 09:41:46;;;;;;;232.07;209.70;;;19.10;97.20;;;;;;5071798;28;20535;-77
2022/08/01 09:44:14;;;;;;;272.80;246.80;;;19.10;97.10;;;;;;5071464;28;20195;-77
2022/08/01 09:46:53;;;;;;;273.85;247.35;;;19.20;97.00;;;;;;5069416;28;20057;-78
2022/08/01 09:49:31;;;;;;;253.52;228.85;;;19.20;97.10;;;;;;5074345;28;20072;-78
2022/08/01 09:52:00;;;;;;;243.73;219.73;;;19.20;97.10;;;;;;5076609;28;20110;-78
2022/08/01 09:54:32;;;;;;;241.95;219.15;;;19.30;96.90;;;;;;5078297;28;20483;-78
2022/08/01 09:57:13;;;;;;;284.98;258.23;;;19.40;96.30;;;;;;5110093;28;20057;-78
2022/08/01 09:59:43;;;;;;;237.93;214.90;;;19.40;96.00;;;;;;5078251;28;20041;-78
2022/08/01 10:02:15;;;;;;;256.65;232.68;;;19.50;96.20;;;;;;5086007;28;20051;-78
2022/08/01 10:04:50;;;;;;;282.63;256.60;;;19.50;95.30;;;;;;5077058;28;20057;-78
2022/08/01 10:07:17;;;;;;;236.00;213.73;;;19.50;95.70;;;;;;5075374;28;20056;-78
2022/08/01 10:09:45;;;;;;;253.43;229.75;;;19.50;95.50;;;;;;5081387;28;20053;-78
2022/08/01 10:12:14;;;;;;;248.05;225.32;;;19.50;94.10;;;;;;5074242;28;20045;-77
2022/08/01 10:14:42;;;;;;;269.05;244.55;;;19.60;94.60;;;;;;5071912;28;20045;-78
2022/08/01 10:17:12;;;;;;;265.95;241.57;;;19.50;94.60;;;;;;5073429;28;20090;-77
2022/08/01 10:19:42;;;;;;;282.50;256.73;;;19.60;94.70;;;;;;5071320;28;20045;-78
2022/08/01 10:22:10;;;;;;;252.45;229.38;;;19.60;94.70;;;;;;5071464;28;20449;-77
2022/08/01 10:24:39;;;;;;;272.95;247.93;;;19.70;95.00;;;;;;5072235;28;20059;-77
2022/08/01 10:27:08;;;;;;;268.25;243.43;;;19.70;94.80;;;;;;5072316;28;20509;-77
2022/08/01 10:29:44;;;;;;;263.13;239.02;;;19.80;94.80;;;;;;5076619;28;20045;-76
2022/08/01 10:32:12;;;;;;;251.80;228.63;;;19.80;94.20;;;;;;5083297;28;20135;-78
2022/08/01 10:34:39;;;;;;;225.13;203.98;;;19.90;94.10;;;;;;5084683;28;20084;-76
2022/08/01 10:37:07;;;;;;;218.50;198.20;;;19.90;93.70;;;;;;5096817;28;20083;-76
2022/08/01 10:39:34;;;;;;;220.40;200.32;;;19.90;93.40;;;;;;5083378;28;20404;-76
2022/08/01 10:42:02;;;;;;;224.65;203.85;;;19.90;93.70;;;;;;5077282;28;20055;-76
2022/08/01 10:44:31;;;;;;;210.27;190.40;;;20.00;93.90;;;;;;5079793;28;20152;-76
2022/08/01 10:47:03;;;;;;;249.75;226.45;;;20.00;93.80;;;;;;5076940;28;20060;-76
2022/08/01 10:49:36;;;;;;;229.68;208.30;;;20.10;94.10;;;;;;5077092;28;20140;-76
2022/08/01 10:52:04;;;;;;;251.13;227.77;;;20.10;93.50;;;;;;5082212;28;20510;-76
2022/08/01 10:54:39;;;;;;;226.85;205.73;;;20.20;93.70;;;;;;5077117;28;20164;-77
2022/08/01 10:57:06;;;;;;;234.45;212.73;;;20.20;93.60;;;;;;5086731;28;20056;-76
2022/08/01 10:59:35;;;;;;;213.10;193.00;;;20.20;93.10;;;;;;5086591;28;20080;-77
2022/08/01 11:02:03;;;;;;;231.43;210.32;;;20.30;93.00;;;;;;5081890;28;20049;-78
2022/08/01 11:04:45;;;;;;;246.85;224.57;;;20.30;93.10;;;;;;5092464;28;20049;-78
2022/08/01 11:07:17;;;;;;;246.15;224.07;;;20.40;92.80;;;;;;5074196;28;20059;-77
2022/08/01 11:09:45;;;;;;;249.93;226.82;;;20.50;92.80;;;;;;5080173;28;20067;-78
2022/08/01 11:12:13;;;;;;;245.88;223.15;;;20.40;89.60;;;;;;5080694;28;20055;-78
2022/08/01 11:15:25;;;;;;;259.05;235.20;;;20.40;90.20;;;;;;5077905;28;20084;-77
2022/08/01 11:17:54;;;;;;;270.83;245.95;;;20.30;85.40;;;;;;5065745;28;20824;-76
2022/08/01 11:20:24;;;;;;;226.77;205.95;;;20.30;88.60;;;;;;5080578;28;20541;-77
2022/08/01 11:23:25;;;;;;;264.05;240.38;;;20.30;90.40;;;;;;5080045;28;20045;-79
2022/08/01 11:26:10;;;;;;;260.92;237.52;;;20.30;91.10;;;;;;5088068;28;20200;-76
2022/08/01 11:28:37;;;;;;;270.15;245.95;;;20.40;91.30;;;;;;5076630;28;20060;-78
2022/08/01 11:31:30;;;;;;;267.85;244.40;;;20.40;91.80;;;;;;5077116;28;20120;-78
2022/08/01 11:33:57;;;;;;;264.20;240.23;;;20.50;92.50;;;;;;5072374;28;20049;-78
2022/08/01 11:36:25;;;;;;;284.77;258.75;;;20.60;92.40;;;;;;5082648;28;20107;-78
2022/08/01 11:39:13;;;;;;;301.80;274.92;;;20.60;92.40;;;;;;5083407;28;20484;-80
2022/08/01 11:41:41;;;;;;;302.80;275.90;;;20.70;92.20;;;;;;5074219;28;20053;-80
2022/08/01 11:44:09;;;;;;;289.20;263.88;;;20.80;91.70;;;;;;5067804;28;20136;-81
2022/08/01 11:47:11;;;;;;;298.08;272.35;;;20.80;91.70;;;;;;5073871;28;20057;-80
2022/08/01 11:49:54;;;;;;;276.83;252.23;;;20.90;92.00;;;;;;5013258;28;20050;-81
2022/08/01 11:52:28;;;;;;;276.53;252.37;;;20.90;90.50;;;;;;5013232;28;20050;-81
2022/08/01 11:54:56;;;;;;;291.85;266.42;;;21.00;86.60;;;;;;5059665;28;20231;-81
2022/08/01 11:57:25;;;;;;;282.52;258.15;;;21.00;89.90;;;;;;5086323;28;20542;-82
2022/08/01 11:59:54;;;;;;;296.35;270.80;;;21.00;90.10;;;;;;5078397;28;20647;-81
2022/08/01 12:02:23;;;;;;;261.60;238.30;;;21.10;90.50;;;;;;5057482;28;20422;-81
2022/08/01 12:04:54;;;;;;;261.65;238.52;;;21.10;90.60;;;;;;5057204;28;20560;-81
2022/08/01 12:07:22;;;;;;;243.85;222.57;;;21.20;90.50;;;;;;5076703;28;20600;-81
2022/08/01 12:09:58;;;;;;;251.25;229.93;;;21.20;90.80;;;;;;5093506;28;20571;-81
2022/08/01 12:12:25;;;;;;;264.33;241.95;;;21.30;90.50;;;;;;5093994;28;20044;-81
2022/08/01 12:14:57;;;;;;;251.65;230.35;;;21.40;90.20;;;;;;5094028;28;20075;-81
2022/08/01 12:17:33;;;;;;;246.43;225.13;;;21.40;88.30;;;;;;5093926;28;20049;-81
2022/08/01 12:20:00;;;;;;;242.93;222.23;;;21.40;89.30;;;;;;5095128;28;20083;-80